Time;durP1;ratioP1;P1;durP2;ratioP2;P2;SDS_P1;SDS_P2;PMS_P1;PMS_P2;Temp;Humidity;BMP_temperature;BMP_pressure;BME280_temperature;BME280_humidity;BME280_pressure;Samples;Min_cycle;Max_cycle;Signal;HPM_P1;HPM_P2
2022/12/22 03:26:54;;;;;;;41.48;12.88;;;;;;;2.82;100.00;101448.55;1766859;80;21067;-83
2022/12/22 03:29:20;;;;;;;38.95;11.78;;;;;;;2.80;100.00;101439.95;1789647;80;20932;-83
2022/12/22 03:31:45;;;;;;;38.67;12.78;;;;;;;2.76;100.00;101442.64;1789732;80;20878;-83
2022/12/22 03:34:11;;;;;;;33.58;10.48;;;;;;;2.68;100.00;101442.27;1789843;80;21094;-83
2022/12/22 03:36:37;;;;;;;31.68;9.70;;;;;;;2.61;100.00;101442.67;1789765;80;21002;-83
2022/12/22 03:39:03;;;;;;;29.92;10.68;;;;;;;2.57;100.00;101441.41;1789521;80;20885;-83
2022/12/22 03:46:58;;;;;;;33.70;11.00;;;;;;;2.37;100.00;101443.81;1789560;80;21310;-82
2022/12/22 03:49:25;;;;;;;32.80;10.65;;;;;;;2.26;100.00;101451.73;1789889;80;21885;-83
2022/12/22 03:51:52;;;;;;;36.40;11.55;;;;;;;2.23;100.00;101448.94;1789428;80;21020;-83
2022/12/22 03:54:22;;;;;;;32.58;11.08;;;;;;;2.15;100.00;101443.73;1763412;80;21032;-83
2022/12/22 03:56:49;;;;;;;31.25;10.65;;;;;;;2.07;100.00;101443.81;1789637;80;22149;-83
2022/12/22 03:59:16;;;;;;;36.83;11.18;;;;;;;2.02;100.00;101440.36;1789834;80;21011;-83
2022/12/22 04:01:49;;;;;;;35.13;10.88;;;;;;;1.99;100.00;101440.73;1789640;80;21142;-83
2022/12/22 04:04:18;;;;;;;42.75;12.10;;;;;;;1.97;100.00;101442.77;1789989;80;21015;-84
2022/12/22 04:06:45;;;;;;;29.02;10.63;;;;;;;1.87;100.00;101444.02;1769670;80;21451;-84
2022/12/22 04:09:11;;;;;;;37.40;12.00;;;;;;;1.81;100.00;101437.59;1710426;82;21046;-84
2022/12/22 04:14:23;;;;;;;36.70;11.55;;;;;;;1.68;100.00;101432.91;1739852;82;21004;-85
2022/12/22 08:21:51;;;;;;;26.68;10.45;;;;;;;6.65;100.00;101496.73;1784629;80;22146;-90
2022/12/22 08:24:17;;;;;;;27.55;10.18;;;;;;;6.85;100.00;101498.83;1787800;80;20987;-91
2022/12/22 08:26:46;;;;;;;25.52;10.05;;;;;;;7.03;100.00;101498.97;1788052;80;21133;-93
2022/12/22 08:29:29;;;;;;;27.20;11.43;;;;;;;7.23;100.00;101496.16;1788029;80;21015;-92
2022/12/22 08:31:55;;;;;;;28.45;9.98;;;;;;;7.46;100.00;101488.91;1726948;83;21494;-92
2022/12/22 08:34:21;;;;;;;24.00;10.00;;;;;;;7.69;100.00;101491.53;1727068;83;21010;-92
2022/12/22 08:36:52;;;;;;;24.25;9.75;;;;;;;7.91;100.00;101497.33;1726958;83;21058;-93
2022/12/22 08:39:20;;;;;;;25.52;10.63;;;;;;;8.02;100.00;101491.77;1723235;83;21193;-94
2022/12/22 08:41:49;;;;;;;27.90;11.25;;;;;;;8.09;100.00;101491.18;1700859;84;21038;-92
2022/12/22 08:44:18;;;;;;;29.00;11.53;;;;;;;8.22;100.00;101495.09;1726526;83;21570;-94
2022/12/22 08:46:44;;;;;;;28.77;12.10;;;;;;;8.26;100.00;101482.04;1726697;83;21022;-93
2022/12/22 08:49:10;;;;;;;34.03;13.48;;;;;;;8.47;100.00;101483.00;1726828;82;21054;-93
2022/12/22 08:51:36;;;;;;;31.95;12.25;;;;;;;8.55;100.00;101481.86;1722470;83;21104;-94
2022/12/22 08:54:02;;;;;;;32.00;12.88;;;;;;;8.55;100.00;101475.14;1726785;83;21077;-91
2022/12/22 08:56:30;;;;;;;35.75;14.07;;;;;;;8.57;100.00;101475.22;1726713;83;20935;-94
2022/12/22 08:58:56;;;;;;;29.40;12.55;;;;;;;8.65;100.00;101470.08;1726472;83;20983;-91
2022/12/22 09:01:23;;;;;;;26.80;10.88;;;;;;;8.80;100.00;101475.06;1726715;83;21042;-91
2022/12/22 09:03:53;;;;;;;30.90;11.40;;;;;;;8.82;100.00;101464.89;1726631;83;21833;-92
2022/12/22 09:06:21;;;;;;;24.55;10.25;;;;;;;8.82;100.00;101459.52;1726407;83;21098;-91
2022/12/22 09:08:48;;;;;;;27.87;10.53;;;;;;;9.02;100.00;101452.53;1726691;83;21177;-92
2022/12/22 09:11:15;;;;;;;26.87;9.98;;;;;;;9.03;100.00;101450.98;1722632;83;21029;-91
2022/12/22 09:13:42;;;;;;;21.17;8.65;;;;;;;9.14;100.00;101446.66;1726440;83;21030;-94
2022/12/22 09:16:09;;;;;;;21.07;8.53;;;;;;;9.24;100.00;101446.13;1726761;83;21088;-94
2022/12/22 09:18:35;;;;;;;26.20;9.58;;;;;;;9.24;100.00;101442.09;1727002;83;21082;-91
2022/12/22 09:21:01;;;;;;;19.17;8.03;;;;;;;9.21;100.00;101437.18;1726121;82;21114;-91
2022/12/22 09:23:31;;;;;;;22.00;9.08;;;;;;;9.14;100.00;101433.75;1726089;83;21065;-93
2022/12/22 09:25:57;;;;;;;21.07;8.25;;;;;;;9.05;100.00;101430.56;1725810;83;21030;-92
2022/12/22 09:28:23;;;;;;;21.40;8.20;;;;;;;8.92;100.00;101430.24;1763503;80;21249;-92
2022/12/22 09:30:53;;;;;;;20.20;8.13;;;;;;;8.82;100.00;101431.30;1789820;80;21000;-94
2022/12/22 09:33:19;;;;;;;18.30;7.40;;;;;;;8.67;100.00;101431.69;1789975;80;21062;-95
2022/12/22 09:35:45;;;;;;;24.57;8.05;;;;;;;8.55;100.00;101432.16;1790538;80;21637;-94
2022/12/22 09:38:11;;;;;;;22.45;9.10;;;;;;;8.45;100.00;101431.89;1790321;80;20967;-96
2022/12/22 09:40:38;;;;;;;20.48;8.40;;;;;;;8.40;100.00;101431.20;1790154;80;21159;-95
2022/12/22 09:43:04;;;;;;;24.35;8.75;;;;;;;8.44;100.00;101430.23;1790120;80;21022;-96
2022/12/22 09:45:32;;;;;;;24.20;9.15;;;;;;;8.39;100.00;101433.60;1790487;80;20995;-96
2022/12/22 09:48:01;;;;;;;22.62;8.30;;;;;;;8.41;100.00;101435.02;1790121;80;21002;-96
2022/12/22 10:11:16;;;;;;;;;;;;;;;;;;;;;
2022/12/22 10:58:22;;;;;;;;;;;;;;;;;;;;;
2022/12/22 11:15:06;;;;;;;21.07;6.40;;;;;;;7.53;100.00;101395.50;1300627;108;21261;-93
2022/12/22 11:21:14;;;;;;;12.85;5.40;;;;;;;7.62;100.00;101382.95;1337757;107;22266;-93
2022/12/22 11:24:23;;;;;;;;;;;;;;;;;;;;;
2022/12/22 11:27:21;;;;;;;12.63;5.42;;;;;;;7.56;100.00;101377.14;1271066;111;21205;-94
2022/12/22 11:30:25;;;;;;;;;;;;;;;;;;;;;
2022/12/22 12:07:56;;;;;;;14.07;5.85;;;;;;;7.59;100.00;101338.30;1151043;124;21386;-93
2022/12/22 12:17:22;;;;;;;;;;;;;;;;;;;;;
2022/12/22 12:25:10;;;;;;;11.55;4.67;;;;;;;7.50;100.00;101332.43;;;;
2022/12/22 12:27:51;;;;;;;14.10;5.05;;;;;;;7.46;100.00;101324.50;1222274;114;21292;-95
2022/12/22 12:30:56;;;;;;;14.98;5.05;;;;;;;7.51;100.00;101328.69;1209424;117;21221;-94
2022/12/22 12:34:04;;;;;;;;;;;;;;;;;;;;;
2022/12/22 12:37:05;;;;;;;;;;;;;;;;;;;;;
2022/12/22 12:40:22;;;;;;;;;;;;;;;;;;;;;
2022/12/22 12:42:49;;;;;;;18.02;6.87;;;;;;;7.37;100.00;101321.81;1218406;117;21178;-94
2022/12/22 12:45:40;;;;;;;16.20;6.22;;;;;;;7.35;100.00;101333.27;1266712;112;21294;-94
2022/12/22 12:48:27;;;;;;;15.00;6.37;;;;;;;7.25;100.00;101335.93;1283856;110;21906;-95
2022/12/22 12:50:57;;;;;;;21.97;7.03;;;;;;;7.16;100.00;101334.56;1288121;110;21407;-95
2022/12/22 12:53:26;;;;;;;17.02;6.67;;;;;;;7.10;100.00;101335.44;1277423;110;21218;-95
2022/12/22 12:56:03;;;;;;;18.67;7.47;;;;;;;7.00;100.00;101333.25;1291536;110;21241;-94
2022/12/22 12:58:41;;;;;;;21.95;8.23;;;;;;;6.86;100.00;101319.66;1289218;109;21180;-94
2022/12/22 13:01:32;;;;;;;21.35;7.92;;;;;;;6.83;100.00;101330.80;1301729;108;21583;-93
2022/12/22 13:03:57;;;;;;;21.75;7.47;;;;;;;6.75;100.00;101336.41;1345146;100;21183;-93
2022/12/22 17:11:24;;;;;;;53.48;15.98;;;;;;;3.34;100.00;101289.77;1785427;80;22820;-87
2022/12/22 17:13:56;;;;;;;41.25;15.10;;;;;;;3.51;100.00;101296.96;1782041;80;20933;-87
2022/12/22 17:16:24;;;;;;;34.43;12.53;;;;;;;3.67;100.00;101297.14;1782235;80;21611;-85
2022/12/22 17:18:50;;;;;;;41.45;11.65;;;;;;;3.79;100.00;101293.41;1782455;80;21052;-86
2022/12/22 17:21:19;;;;;;;33.28;11.22;;;;;;;3.88;100.00;101293.55;1756545;80;20988;-86
2022/12/22 17:23:51;;;;;;;32.25;10.68;;;;;;;3.98;100.00;101291.36;1782472;80;21548;-86
2022/12/22 17:26:22;;;;;;;31.15;9.83;;;;;;;4.07;100.00;101297.34;1782741;80;21473;-86
2022/12/22 17:28:49;;;;;;;28.05;10.18;;;;;;;4.16;100.00;101299.33;1782469;80;21161;-87
2022/12/22 17:31:19;;;;;;;32.50;11.48;;;;;;;4.20;100.00;101304.05;1782263;80;20945;-87
2022/12/22 17:33:46;;;;;;;42.25;12.98;;;;;;;4.23;100.00;101300.16;1720741;82;21022;-86
2022/12/22 17:36:31;;;;;;;38.75;12.70;;;;;;;4.30;100.00;101293.02;1721077;82;21534;-85
2022/12/22 17:38:58;;;;;;;34.88;11.95;;;;;;;4.33;100.00;101288.61;1720813;82;21035;-86
2022/12/22 17:41:24;;;;;;;37.65;12.58;;;;;;;4.37;100.00;101285.84;1716684;83;21110;-87
2022/12/22 17:43:50;;;;;;;39.55;13.62;;;;;;;4.42;100.00;101290.59;1721047;82;21070;-86
2022/12/22 17:46:19;;;;;;;43.00;14.40;;;;;;;4.44;100.00;101292.03;1720752;83;21107;-87
2022/12/22 17:48:46;;;;;;;46.98;14.05;;;;;;;4.49;100.00;101292.74;1720788;82;21050;-88
2022/12/22 17:51:22;;;;;;;35.83;12.60;;;;;;;4.52;100.00;101295.83;1720902;82;21066;-86
2022/12/22 17:53:49;;;;;;;45.60;15.13;;;;;;;4.49;100.00;101278.06;1717999;83;21179;-87
2022/12/22 17:56:21;;;;;;;42.80;14.18;;;;;;;4.62;100.00;101297.27;1720800;82;20986;-87
2022/12/22 17:58:49;;;;;;;34.20;12.90;;;;;;;4.67;100.00;101292.97;1642704;86;21129;-87
2022/12/22 18:01:20;;;;;;;35.40;12.55;;;;;;;4.72;100.00;101291.86;1640115;87;21018;-87
2022/12/22 18:03:47;;;;;;;41.65;13.78;;;;;;;4.77;100.00;101291.26;1589302;90;21055;-87
2022/12/22 18:06:14;;;;;;;34.78;12.55;;;;;;;4.80;100.00;101287.36;1608160;88;21112;-87
2022/12/22 18:08:40;;;;;;;31.30;11.45;;;;;;;4.82;100.00;101292.78;1607970;89;21087;-86
2022/12/22 18:11:06;;;;;;;33.67;11.68;;;;;;;4.83;100.00;101283.77;1607588;87;21117;-88
2022/12/22 18:13:34;;;;;;;36.75;12.33;;;;;;;4.87;100.00;101287.66;1607844;89;21150;-87
2022/12/22 18:16:00;;;;;;;32.85;10.58;;;;;;;4.90;100.00;101287.77;1607487;89;21539;-87
2022/12/22 18:18:26;;;;;;;31.65;10.78;;;;;;;4.94;100.00;101283.64;1607705;89;21118;-87
2022/12/22 18:20:52;;;;;;;32.90;10.53;;;;;;;4.92;100.00;101287.87;1607488;89;21590;-87
2022/12/22 18:23:28;;;;;;;31.60;10.85;;;;;;;4.96;100.00;101295.77;1607708;89;21075;-87
2022/12/22 18:25:55;;;;;;;26.02;9.85;;;;;;;4.96;100.00;101289.09;1607681;89;22216;-87
2022/12/22 18:28:21;;;;;;;25.35;9.08;;;;;;;4.98;100.00;101287.05;1607880;89;21075;-87
2022/12/22 18:30:47;;;;;;;26.87;9.98;;;;;;;4.99;100.00;101296.69;1638756;86;21566;-88
2022/12/22 18:33:14;;;;;;;30.68;10.20;;;;;;;5.00;100.00;101294.35;1683693;85;21147;-88
2022/12/22 18:35:42;;;;;;;28.38;10.10;;;;;;;4.98;100.00;101291.05;1688026;85;21077;-88
2022/12/22 18:38:16;;;;;;;30.17;9.83;;;;;;;4.99;100.00;101291.88;1688028;85;21039;-87
2022/12/22 18:40:43;;;;;;;31.05;10.72;;;;;;;5.00;100.00;101293.02;1629389;87;21064;-88
2022/12/22 18:43:13;;;;;;;31.97;11.12;;;;;;;4.98;100.00;101292.39;1632278;87;21223;-88
2022/12/22 18:45:40;;;;;;;31.93;10.63;;;;;;;4.98;100.00;101293.73;1632147;87;21063;-88
2022/12/22 18:48:06;;;;;;;34.35;11.63;;;;;;;4.97;100.00;101293.91;1632008;87;21181;-88
2022/12/22 18:50:33;;;;;;;33.78;11.88;;;;;;;4.99;100.00;101297.22;1632170;87;21098;-88
2022/12/22 18:53:05;;;;;;;38.17;12.07;;;;;;;4.98;100.00;101289.72;1632178;87;21145;-87
2022/12/22 18:55:32;;;;;;;38.95;12.75;;;;;;;4.97;100.00;101296.09;1623272;87;21216;-87
2022/12/22 18:58:00;;;;;;;33.02;11.45;;;;;;;4.98;100.00;101291.05;1614128;88;21673;-86
2022/12/22 19:00:30;;;;;;;38.83;13.08;;;;;;;4.99;100.00;101291.35;1646491;84;21094;-87
2022/12/22 19:03:04;;;;;;;40.30;13.55;;;;;;;5.03;100.00;101294.45;1607806;88;21112;-88
2022/12/22 19:05:32;;;;;;;42.53;14.43;;;;;;;5.05;100.00;101292.38;1557094;91;26553;-85
2022/12/22 19:07:59;;;;;;;44.53;14.33;;;;;;;5.03;100.00;101300.29;1570992;91;21287;-86
2022/12/22 19:10:42;;;;;;;44.55;14.98;;;;;;;5.02;100.00;101292.80;1580504;89;21569;-87
2022/12/22 19:13:30;;;;;;;54.13;16.17;;;;;;;5.01;100.00;101298.66;1561366;90;21117;-87
2022/12/22 19:15:57;;;;;;;44.93;15.38;;;;;;;5.03;100.00;101294.95;1574705;91;21651;-86
2022/12/22 19:18:27;;;;;;;50.80;15.85;;;;;;;5.06;100.00;101295.87;1588546;89;21127;-86
2022/12/22 19:20:54;;;;;;;49.90;16.10;;;;;;;5.06;100.00;101297.20;1595444;88;21099;-86
2022/12/22 19:23:23;;;;;;;40.35;14.00;;;;;;;5.03;100.00;101295.80;1565752;91;21085;-87
2022/12/22 19:25:53;;;;;;;45.85;14.80;;;;;;;5.04;100.00;101296.09;1565894;91;21104;-86
2022/12/22 19:28:42;;;;;;;43.83;14.47;;;;;;;5.05;100.00;101289.71;1589872;90;21039;-86
2022/12/22 19:31:12;;;;;;;46.95;15.48;;;;;;;5.01;100.00;101291.98;1594413;90;21656;-86
2022/12/22 19:33:41;;;;;;;47.00;14.58;;;;;;;5.01;100.00;101287.97;1588434;90;21103;-87
2022/12/22 19:36:15;;;;;;;42.60;14.25;;;;;;;5.00;100.00;101288.19;1594281;90;21122;-87
2022/12/22 19:38:41;;;;;;;48.92;16.52;;;;;;;4.98;100.00;101283.56;1564769;91;21111;-86
2022/12/22 19:41:44;;;;;;;45.10;14.80;;;;;;;4.99;100.00;101289.20;1564775;91;21087;-87
2022/12/22 19:44:24;;;;;;;49.83;16.35;;;;;;;5.02;100.00;101287.45;1564828;91;21151;-86
2022/12/22 19:46:52;;;;;;;45.80;14.95;;;;;;;5.06;100.00;101283.36;1563716;90;21107;-86
2022/12/22 19:49:22;;;;;;;54.75;15.55;;;;;;;5.05;100.00;101287.04;1564607;91;21102;-86
2022/12/22 19:51:48;;;;;;;46.60;15.10;;;;;;;5.04;100.00;101284.07;1564823;91;21014;-86
2022/12/22 19:54:15;;;;;;;45.40;16.00;;;;;;;5.02;100.00;101283.45;1565021;91;20988;-85
2022/12/22 19:56:51;;;;;;;45.65;15.72;;;;;;;5.00;100.00;101290.34;1564701;91;21098;-86
2022/12/22 19:59:43;;;;;;;51.68;17.20;;;;;;;5.02;100.00;101292.80;1571879;90;21222;-86
2022/12/22 20:02:29;;;;;;;51.05;16.62;;;;;;;5.03;100.00;101286.94;1598297;89;21077;-87
2022/12/22 20:04:56;;;;;;;46.23;16.10;;;;;;;5.04;100.00;101284.07;1641244;87;21064;-86
2022/12/22 20:07:26;;;;;;;46.85;16.77;;;;;;;5.03;100.00;101284.27;1641494;87;21088;-86
2022/12/22 20:09:53;;;;;;;44.83;15.68;;;;;;;5.00;100.00;101285.00;1666443;86;21010;-86
2022/12/22 20:12:34;;;;;;;49.63;15.60;;;;;;;5.04;100.00;101293.94;1668677;86;21310;-86
2022/12/22 20:15:20;;;;;;;54.93;16.67;;;;;;;5.03;100.00;101285.11;1668543;86;21605;-86
2022/12/22 20:17:50;;;;;;;48.38;16.30;;;;;;;5.05;100.00;101291.56;1668808;86;20994;-86
2022/12/22 20:20:20;;;;;;;46.75;16.40;;;;;;;5.03;100.00;101286.94;1668700;86;21007;-87
2022/12/22 20:22:51;;;;;;;45.23;15.40;;;;;;;5.06;100.00;101287.37;1637274;87;21033;-87
2022/12/22 20:25:20;;;;;;;53.45;16.05;;;;;;;5.06;100.00;101286.03;1602539;89;21356;-86
2022/12/22 20:27:48;;;;;;;52.25;17.67;;;;;;;5.07;100.00;101290.34;1602515;89;21093;-86
2022/12/22 20:30:24;;;;;;;55.63;16.65;;;;;;;5.04;100.00;101285.92;1630756;88;21137;-86
2022/12/22 20:32:51;;;;;;;59.20;18.70;;;;;;;4.99;100.00;101291.88;1635586;87;21592;-86
2022/12/22 20:35:18;;;;;;;48.48;16.57;;;;;;;4.95;100.00;101283.45;1635284;87;21018;-87
2022/12/22 20:37:44;;;;;;;59.38;18.55;;;;;;;4.93;100.00;101292.17;1635640;87;21208;-86
2022/12/22 20:40:22;;;;;;;60.50;18.40;;;;;;;4.93;100.00;101283.34;1620353;87;21520;-86
2022/12/22 20:42:49;;;;;;;61.88;18.55;;;;;;;4.93;100.00;101285.50;1647067;87;21534;-86
2022/12/22 20:45:17;;;;;;;59.10;18.73;;;;;;;4.94;100.00;101281.82;1648471;87;21017;-86
2022/12/22 20:47:44;;;;;;;56.25;18.27;;;;;;;4.97;100.00;101285.91;1648547;87;21080;-86
2022/12/22 20:50:29;;;;;;;48.25;16.50;;;;;;;4.97;100.00;101285.41;1648752;87;21579;-86
2022/12/22 20:52:56;;;;;;;55.12;18.00;;;;;;;4.99;100.00;101289.20;1613383;88;21080;-86
2022/12/22 20:55:26;;;;;;;56.02;17.60;;;;;;;4.95;100.00;101289.31;1613539;88;21080;-86
2022/12/22 20:57:52;;;;;;;59.55;18.55;;;;;;;4.92;100.00;101295.06;1613481;88;21121;-86
2022/12/22 21:00:25;;;;;;;56.10;17.80;;;;;;;4.90;100.00;101292.59;1613485;88;20977;-86
2022/12/22 21:02:53;;;;;;;68.90;20.35;;;;;;;4.94;100.00;101284.48;1613685;88;21155;-86
2022/12/22 21:05:20;;;;;;;54.67;18.65;;;;;;;4.95;100.00;101287.98;1613097;89;21040;-86
2022/12/22 21:07:47;;;;;;;56.60;19.60;;;;;;;4.95;100.00;101288.80;1613550;89;21095;-87
2022/12/22 21:10:25;;;;;;;58.70;18.30;;;;;;;4.91;100.00;101289.39;1612922;88;20986;-86
2022/12/22 21:12:51;;;;;;;56.02;18.82;;;;;;;4.93;100.00;101289.50;1606864;89;21609;-86
2022/12/22 21:15:23;;;;;;;53.23;17.95;;;;;;;4.89;100.00;101284.80;1606804;89;21078;-86
2022/12/22 21:17:50;;;;;;;53.78;17.55;;;;;;;4.87;100.00;101289.51;1607105;89;21108;-86
2022/12/22 21:20:21;;;;;;;49.40;16.90;;;;;;;4.92;100.00;101285.72;1606985;89;21216;-86
2022/12/22 21:22:47;;;;;;;48.08;16.52;;;;;;;4.95;100.00;101287.46;1558902;90;21665;-87
2022/12/22 21:25:14;;;;;;;51.73;17.55;;;;;;;4.98;100.00;101286.23;1554193;90;21213;-85
2022/12/22 21:27:45;;;;;;;42.03;15.75;;;;;;;5.01;100.00;101287.16;1510664;93;21195;-86
2022/12/22 21:30:19;;;;;;;50.48;16.73;;;;;;;4.98;100.00;101284.37;1572042;87;21121;-86
2022/12/22 21:32:45;;;;;;;43.73;15.72;;;;;;;4.98;100.00;101283.56;1613350;87;21676;-86
2022/12/22 21:35:24;;;;;;;45.12;16.23;;;;;;;4.92;100.00;101278.52;1615373;87;21069;-87
2022/12/22 21:37:52;;;;;;;45.63;15.80;;;;;;;4.90;100.00;101273.89;1564155;91;21117;-86
2022/12/22 21:40:24;;;;;;;44.67;15.65;;;;;;;4.93;100.00;101276.67;1564073;91;21177;-86
2022/12/22 21:42:52;;;;;;;43.87;15.30;;;;;;;4.92;100.00;101281.20;1588828;90;21135;-86
2022/12/22 21:45:24;;;;;;;43.05;15.78;;;;;;;4.94;100.00;101275.63;1588714;90;21081;-86
2022/12/22 21:47:50;;;;;;;48.15;16.42;;;;;;;4.94;100.00;101272.47;1588963;90;21073;-88
2022/12/22 21:50:25;;;;;;;48.68;15.45;;;;;;;4.95;100.00;101270.10;1588947;90;21070;-86
2022/12/22 21:52:51;;;;;;;47.23;16.35;;;;;;;4.94;100.00;101269.80;1560986;91;21137;-86
2022/12/22 21:55:21;;;;;;;51.33;16.07;;;;;;;4.91;100.00;101270.22;1562615;91;21051;-86
2022/12/22 21:57:47;;;;;;;49.27;17.07;;;;;;;4.90;100.00;101265.88;1559576;91;21042;-86
2022/12/22 22:00:16;;;;;;;50.35;17.82;;;;;;;4.89;100.00;101268.25;1562707;91;21554;-85
2022/12/22 22:02:42;;;;;;;46.13;16.10;;;;;;;4.89;100.00;101264.25;1562918;91;21570;-86
2022/12/22 22:05:28;;;;;;;43.05;15.75;;;;;;;4.84;100.00;101266.70;1562907;91;21156;-86
2022/12/22 22:07:57;;;;;;;49.03;15.93;;;;;;;4.84;100.00;101265.37;1562833;91;21534;-85
2022/12/22 22:10:27;;;;;;;42.03;15.32;;;;;;;4.87;100.00;101269.48;1562752;91;21610;-86
2022/12/22 22:12:53;;;;;;;40.75;16.00;;;;;;;4.88;100.00;101265.77;1564572;91;21079;-86
2022/12/22 22:15:21;;;;;;;44.93;14.45;;;;;;;4.88;100.00;101265.28;1564550;91;21086;-86
2022/12/22 22:17:48;;;;;;;42.93;15.58;;;;;;;4.89;100.00;101265.58;1564598;91;21140;-86
2022/12/22 22:20:24;;;;;;;40.75;14.25;;;;;;;4.89;100.00;101259.42;1601680;88;20993;-86
2022/12/22 22:22:53;;;;;;;43.28;14.73;;;;;;;4.89;100.00;101260.77;1589698;90;21057;-85
2022/12/22 22:25:20;;;;;;;37.60;13.88;;;;;;;4.92;100.00;101264.36;1585171;90;21058;-85
2022/12/22 22:27:46;;;;;;;38.70;13.90;;;;;;;4.88;100.00;101257.27;1585164;90;21113;-86
2022/12/22 22:30:25;;;;;;;46.28;13.10;;;;;;;4.88;100.00;101253.76;1585046;90;21249;-85
2022/12/22 22:32:52;;;;;;;35.63;13.20;;;;;;;4.89;100.00;101246.08;1584604;90;21098;-86
2022/12/22 22:35:19;;;;;;;34.48;11.78;;;;;;;4.86;100.00;101245.97;1634362;87;21033;-86
2022/12/22 22:37:49;;;;;;;34.58;12.73;;;;;;;4.82;100.00;101252.73;1638220;87;21093;-86
2022/12/22 22:40:15;;;;;;;31.05;11.40;;;;;;;4.81;100.00;101254.28;1638231;87;21085;-86
2022/12/22 22:42:41;;;;;;;27.15;9.63;;;;;;;4.79;100.00;101255.81;1638279;87;21085;-86
2022/12/22 22:45:08;;;;;;;22.48;9.63;;;;;;;4.78;100.00;101252.84;1638455;87;21565;-87
2022/12/22 22:47:34;;;;;;;26.15;9.58;;;;;;;4.78;100.00;101261.67;1638253;87;21065;-86
2022/12/22 22:50:00;;;;;;;28.38;9.58;;;;;;;4.76;100.00;101254.40;1638367;87;21624;-86
2022/12/22 22:52:26;;;;;;;22.58;8.80;;;;;;;4.76;100.00;101264.23;1638435;87;21015;-87
2022/12/22 22:54:52;;;;;;;25.88;9.18;;;;;;;4.75;100.00;101255.92;1616034;87;21249;-85
2022/12/22 22:57:18;;;;;;;27.73;9.58;;;;;;;4.75;100.00;101262.08;1663811;86;20974;-86
2022/12/22 22:59:44;;;;;;;24.35;9.08;;;;;;;4.74;100.00;101252.44;1665307;86;21786;-86
2022/12/22 23:02:10;;;;;;;26.37;8.85;;;;;;;4.70;100.00;101251.70;1664893;86;21076;-86
2022/12/22 23:04:36;;;;;;;23.50;8.73;;;;;;;4.72;100.00;101250.48;1664837;86;21541;-87
2022/12/22 23:07:03;;;;;;;23.40;8.35;;;;;;;4.73;100.00;101248.10;1665093;86;21112;-85
2022/12/22 23:09:29;;;;;;;21.90;8.00;;;;;;;4.70;100.00;101241.84;1665109;86;21549;-85
2022/12/22 23:11:55;;;;;;;22.80;8.65;;;;;;;4.70;100.00;101242.36;1685271;83;20987;-86
2022/12/22 23:14:21;;;;;;;24.55;8.90;;;;;;;4.73;100.00;101239.28;1756405;81;20995;-87
2022/12/22 23:16:48;;;;;;;22.48;9.30;;;;;;;4.74;100.00;101242.28;1724578;83;20989;-86
2022/12/22 23:19:14;;;;;;;24.70;9.35;;;;;;;4.74;100.00;101244.42;1727712;83;21090;-85
2022/12/22 23:21:40;;;;;;;29.45;9.15;;;;;;;4.73;100.00;101237.94;1756200;81;21091;-86
2022/12/22 23:24:06;;;;;;;27.82;9.68;;;;;;;4.73;100.00;101240.61;1725571;83;21054;-86
2022/12/22 23:26:33;;;;;;;26.73;10.00;;;;;;;4.75;100.00;101243.91;1697979;84;21105;-86
2022/12/22 23:28:59;;;;;;;28.75;10.15;;;;;;;4.75;100.00;101242.05;1725931;83;21122;-87
2022/12/22 23:31:25;;;;;;;31.35;11.25;;;;;;;4.73;100.00;101236.09;1695200;84;21645;-86
2022/12/22 23:33:51;;;;;;;29.10;11.08;;;;;;;4.71;100.00;101236.02;1698095;84;21626;-86
2022/12/22 23:36:17;;;;;;;32.55;12.05;;;;;;;4.75;100.00;101234.56;1725827;83;21010;-86
2022/12/22 23:38:43;;;;;;;29.80;11.45;;;;;;;4.78;100.00;101233.63;1690986;84;21652;-85
2022/12/22 23:41:13;;;;;;;26.02;9.73;;;;;;;4.80;100.00;101229.44;1697913;84;21018;-87
2022/12/22 23:43:40;;;;;;;28.07;9.95;;;;;;;4.79;100.00;101227.77;1710160;83;21026;-86
2022/12/22 23:46:09;;;;;;;28.98;9.83;;;;;;;4.81;100.00;101228.92;1710386;83;21025;-87
2022/12/22 23:48:36;;;;;;;26.97;10.03;;;;;;;4.84;100.00;101225.31;1710464;83;21042;-86
2022/12/22 23:51:03;;;;;;;26.35;9.70;;;;;;;4.86;100.00;101235.80;1710412;83;21545;-86
2022/12/22 23:53:29;;;;;;;23.22;8.73;;;;;;;4.85;100.00;101234.14;1710385;83;21021;-85
2022/12/22 23:55:55;;;;;;;22.73;8.23;;;;;;;4.79;100.00;101230.44;1747282;81;22623;-86
2022/12/22 23:58:22;;;;;;;23.90;8.33;;;;;;;4.78;100.00;101233.63;1755871;81;20996;-86
